Time;durP1;ratioP1;P1;durP2;ratioP2;P2;SDS_P1;SDS_P2;PMS_P1;PMS_P2;Temp;Humidity;BMP_temperature;BMP_pressure;BME280_temperature;BME280_humidity;BME280_pressure;Samples;Min_cycle;Max_cycle;Signal;HPM_P1;HPM_P2
2022/09/23 00:01:18;;;;;;;19.65;7.32;;;;;;;9.90;100.00;101617.16;5080675;28;20467;-64
2022/09/23 00:03:45;;;;;;;19.02;7.28;;;;;;;9.73;100.00;101619.50;5083356;28;20043;-63
2022/09/23 00:06:20;;;;;;;18.50;7.38;;;;;;;9.73;100.00;101620.38;5081405;28;20049;-62
2022/09/23 00:08:48;;;;;;;20.05;7.30;;;;;;;9.75;100.00;101620.41;5083765;28;20028;-63
2022/09/23 00:11:22;;;;;;;18.25;7.13;;;;;;;9.62;100.00;101613.97;5081161;28;20027;-63
2022/09/23 00:13:51;;;;;;;18.60;7.53;;;;;;;9.59;100.00;101617.44;5084435;28;20035;-63
2022/09/23 00:16:25;;;;;;;22.05;7.60;;;;;;;9.53;100.00;101619.97;5080578;28;20552;-63
2022/09/23 00:18:51;;;;;;;20.60;7.40;;;;;;;9.57;100.00;101613.00;5080472;28;20028;-63
2022/09/23 00:21:17;;;;;;;20.38;7.22;;;;;;;9.62;100.00;101606.06;5083801;28;20032;-62
2022/09/23 00:23:43;;;;;;;19.40;7.40;;;;;;;9.65;100.00;101608.75;5081285;28;20031;-63
2022/09/23 00:26:12;;;;;;;20.10;7.70;;;;;;;9.56;100.00;101603.28;5082468;28;20028;-63
2022/09/23 00:28:37;;;;;;;20.85;7.75;;;;;;;9.47;100.00;101600.47;5081795;28;20035;-61
2022/09/23 00:31:08;;;;;;;20.75;7.00;;;;;;;9.41;100.00;101602.13;5084760;28;20020;-61
2022/09/23 00:33:34;;;;;;;18.77;7.00;;;;;;;9.32;100.00;101598.38;5086050;28;20031;-63
2022/09/23 00:36:00;;;;;;;18.88;6.93;;;;;;;9.33;100.00;101593.13;5084759;28;20052;-63
2022/09/23 00:38:27;;;;;;;19.98;7.20;;;;;;;9.33;100.00;101590.50;5086883;28;20409;-63
2022/09/23 00:40:53;;;;;;;21.77;7.28;;;;;;;9.31;100.00;101586.06;5084229;28;20111;-63
2022/09/23 00:43:19;;;;;;;19.55;7.13;;;;;;;9.32;100.00;101591.38;5083988;28;20029;-63
2022/09/23 00:45:49;;;;;;;19.63;7.50;;;;;;;9.25;100.00;101592.09;5087109;28;20059;-63
2022/09/23 00:48:18;;;;;;;20.48;8.05;;;;;;;9.10;100.00;101589.13;5084698;28;20028;-64
2022/09/23 00:50:51;;;;;;;20.10;8.60;;;;;;;9.08;100.00;101587.31;5086530;28;20078;-65
2022/09/23 00:53:21;;;;;;;18.90;7.05;;;;;;;9.04;100.00;101587.22;5084190;28;20032;-64
2022/09/23 00:55:55;;;;;;;19.00;7.78;;;;;;;9.05;100.00;101591.66;5086833;28;20019;-64
2022/09/23 00:58:26;;;;;;;20.20;8.30;;;;;;;9.05;100.00;101589.91;5083444;28;20028;-64
2022/09/23 01:00:52;;;;;;;18.45;7.80;;;;;;;8.97;100.00;101583.56;5083763;28;20039;-64
2022/09/23 01:03:19;;;;;;;19.08;7.85;;;;;;;9.00;100.00;101586.28;5087400;28;20075;-65
2022/09/23 01:05:45;;;;;;;19.20;8.40;;;;;;;8.94;100.00;101588.78;5084173;28;20032;-64
2022/09/23 01:08:13;;;;;;;19.50;7.78;;;;;;;8.98;100.00;101587.97;5085788;28;20031;-64
2022/09/23 01:11:14;;;;;;;20.67;8.68;;;;;;;8.92;100.00;101582.56;5085040;28;20024;-65
2022/09/23 01:13:45;;;;;;;19.80;8.20;;;;;;;8.92;100.00;101590.47;5085743;28;20040;-64
2022/09/23 01:16:26;;;;;;;20.75;8.02;;;;;;;8.88;100.00;101583.34;5084554;28;20024;-65
2022/09/23 01:19:09;;;;;;;19.58;8.60;;;;;;;8.81;100.00;101584.06;5083362;28;20482;-64
2022/09/23 01:21:52;;;;;;;21.42;8.93;;;;;;;8.84;100.00;101581.50;5084787;28;20032;-64
2022/09/23 01:24:44;;;;;;;21.17;8.80;;;;;;;8.76;100.00;101578.69;5083709;28;20363;-64
2022/09/23 01:27:18;;;;;;;21.42;9.30;;;;;;;8.76;100.00;101583.06;5085551;28;20048;-64
2022/09/23 01:30:01;;;;;;;20.58;9.20;;;;;;;8.77;100.00;101580.47;5084110;28;20024;-64
2022/09/23 01:32:36;;;;;;;20.08;8.60;;;;;;;8.67;100.00;101574.09;5082124;28;20067;-65
2022/09/23 01:35:07;;;;;;;21.33;9.40;;;;;;;8.62;100.00;101573.09;5085409;28;20398;-64
2022/09/23 01:37:52;;;;;;;22.58;9.98;;;;;;;8.61;100.00;101567.78;5084035;28;20119;-61
2022/09/23 01:40:20;;;;;;;21.63;9.65;;;;;;;8.54;100.00;101572.91;5020152;28;20488;-61
2022/09/23 01:42:50;;;;;;;22.77;10.48;;;;;;;8.51;100.00;101572.81;5023915;28;20045;-63
2022/09/23 01:45:31;;;;;;;20.65;9.18;;;;;;;8.54;100.00;101577.28;5021226;28;20049;-61
2022/09/23 01:48:17;;;;;;;20.33;9.00;;;;;;;8.61;100.00;101576.59;5024133;28;20036;-62
2022/09/23 01:50:56;;;;;;;19.98;9.20;;;;;;;8.64;100.00;101566.09;5021368;28;20112;-62
2022/09/23 01:53:48;;;;;;;21.67;9.57;;;;;;;8.69;100.00;101572.41;5020761;28;20067;-61
2022/09/23 01:56:27;;;;;;;22.35;10.70;;;;;;;8.68;100.00;101569.72;4954077;29;20602;-63
2022/09/23 01:59:08;;;;;;;21.80;9.70;;;;;;;8.62;100.00;101570.47;4950321;29;20040;-62
2022/09/23 02:01:40;;;;;;;20.83;9.60;;;;;;;8.59;100.00;101569.47;4951857;29;20047;-63
2022/09/23 02:04:14;;;;;;;20.70;9.85;;;;;;;8.56;100.00;101570.28;4953831;29;20118;-61
2022/09/23 02:06:45;;;;;;;21.48;10.18;;;;;;;8.55;100.00;101569.41;4954076;29;20079;-61
2022/09/23 02:09:15;;;;;;;21.92;9.82;;;;;;;8.60;100.00;101566.00;4953985;29;20045;-61
2022/09/23 02:11:44;;;;;;;22.30;10.73;;;;;;;8.58;100.00;101559.78;4953639;29;20118;-62
2022/09/23 02:14:20;;;;;;;21.65;10.23;;;;;;;8.57;100.00;101560.66;4953593;29;20053;-61
2022/09/23 02:16:49;;;;;;;23.33;10.57;;;;;;;8.54;100.00;101559.72;4972924;28;20531;-63
2022/09/23 02:19:40;;;;;;;21.85;10.27;;;;;;;8.60;100.00;101556.34;5031752;28;20139;-61
2022/09/23 02:22:14;;;;;;;21.15;9.32;;;;;;;8.60;100.00;101555.47;5032034;28;20534;-62
2022/09/23 02:24:40;;;;;;;21.15;10.00;;;;;;;8.59;100.00;101551.03;5031514;28;20025;-62
2022/09/23 02:27:21;;;;;;;21.35;10.07;;;;;;;8.53;100.00;101541.25;5031515;28;20424;-63
2022/09/23 02:30:07;;;;;;;22.10;10.93;;;;;;;8.44;100.00;101538.34;5031596;28;20021;-63
2022/09/23 02:33:03;;;;;;;23.00;11.82;;;;;;;8.35;100.00;101539.03;5043024;28;20087;-62
2022/09/23 02:35:49;;;;;;;22.10;11.35;;;;;;;8.31;100.00;101532.78;5082121;28;20053;-61
2022/09/23 02:38:39;;;;;;;21.23;10.80;;;;;;;8.30;100.00;101533.66;5082474;28;20028;-61
2022/09/23 02:41:10;;;;;;;21.67;10.93;;;;;;;8.24;100.00;101530.84;5083015;28;20419;-62
2022/09/23 02:44:08;;;;;;;23.15;11.30;;;;;;;8.15;100.00;101517.44;5083663;28;20103;-62
2022/09/23 02:46:35;;;;;;;21.75;10.52;;;;;;;8.09;100.00;101519.94;5019530;28;20041;-62
2022/09/23 02:49:16;;;;;;;21.42;10.98;;;;;;;8.07;100.00;101519.00;5020257;28;20045;-62
2022/09/23 02:51:41;;;;;;;22.25;11.77;;;;;;;8.11;100.00;101516.50;5020152;28;20083;-63
2022/09/23 02:54:13;;;;;;;22.67;11.15;;;;;;;8.01;100.00;101515.38;5020931;28;20563;-62
2022/09/23 02:56:39;;;;;;;23.05;11.98;;;;;;;8.03;100.00;101512.78;5020858;28;20128;-61
2022/09/23 02:59:05;;;;;;;22.08;11.48;;;;;;;7.98;100.00;101507.41;5023287;28;20112;-61
2022/09/23 03:01:53;;;;;;;24.05;12.30;;;;;;;7.92;100.00;101507.25;5020311;28;20030;-62
2022/09/23 03:04:21;;;;;;;21.48;11.25;;;;;;;7.93;100.00;101510.75;5019723;28;20083;-62
2022/09/23 03:07:17;;;;;;;24.30;11.30;;;;;;;7.88;100.00;101509.72;5022249;28;20132;-63
2022/09/23 03:09:52;;;;;;;21.98;10.98;;;;;;;7.92;100.00;101507.25;5021807;28;20042;-62
2022/09/23 03:12:33;;;;;;;22.85;11.18;;;;;;;7.90;100.00;101503.66;5019532;28;20449;-63
2022/09/23 03:15:11;;;;;;;21.90;11.60;;;;;;;7.79;100.00;101505.13;5003380;28;20033;-64
2022/09/23 03:17:50;;;;;;;22.25;10.90;;;;;;;7.78;100.00;101506.00;5021089;28;20500;-64
2022/09/23 03:20:28;;;;;;;21.55;11.60;;;;;;;7.74;100.00;101501.50;5021763;28;20037;-64
2022/09/23 03:22:59;;;;;;;22.30;11.45;;;;;;;7.73;100.00;101502.34;5041360;28;20372;-64
2022/09/23 03:25:28;;;;;;;23.35;11.60;;;;;;;7.67;100.00;101495.16;5081186;28;20405;-64
2022/09/23 03:27:56;;;;;;;21.60;11.55;;;;;;;7.60;100.00;101493.22;5081351;28;20127;-64
2022/09/23 03:30:22;;;;;;;22.08;12.35;;;;;;;7.52;100.00;101498.28;5080888;28;20016;-64
2022/09/23 03:32:50;;;;;;;22.85;12.65;;;;;;;7.54;100.00;101496.56;5084159;28;20031;-64
2022/09/23 03:35:16;;;;;;;23.38;12.48;;;;;;;7.55;100.00;101495.72;5081385;28;20097;-64
2022/09/23 03:37:56;;;;;;;23.33;12.52;;;;;;;7.47;100.00;101491.97;5083055;28;20416;-64
2022/09/23 03:40:21;;;;;;;24.48;13.13;;;;;;;7.47;100.00;101494.63;5080738;28;20085;-64
2022/09/23 03:42:47;;;;;;;24.05;13.10;;;;;;;7.50;100.00;101494.72;5083866;28;20103;-64
2022/09/23 03:45:20;;;;;;;22.98;12.85;;;;;;;7.51;100.00;101496.50;5081701;28;20035;-64
2022/09/23 03:47:45;;;;;;;24.70;12.90;;;;;;;7.56;100.00;101492.25;5083534;28;20455;-64
2022/09/23 03:50:12;;;;;;;24.27;14.10;;;;;;;7.54;100.00;101493.94;5082260;28;20027;-64
2022/09/23 03:52:38;;;;;;;24.60;14.43;;;;;;;7.63;100.00;101488.94;5082505;28;20021;-64
2022/09/23 03:55:04;;;;;;;24.30;13.07;;;;;;;7.60;100.00;101488.88;5083209;28;20028;-65
2022/09/23 03:57:30;;;;;;;24.50;13.77;;;;;;;7.57;100.00;101477.34;5081526;28;20037;-64
2022/09/23 03:59:56;;;;;;;24.38;13.90;;;;;;;7.57;100.00;101488.78;5084217;28;20025;-64
2022/09/23 04:02:21;;;;;;;24.60;14.57;;;;;;;7.55;100.00;101485.19;5080740;28;20016;-64
2022/09/23 04:04:46;;;;;;;23.33;13.60;;;;;;;7.55;100.00;101486.94;5086462;28;20028;-64
2022/09/23 04:07:12;;;;;;;24.50;14.35;;;;;;;7.53;100.00;101486.00;5085994;28;20024;-64
2022/09/23 04:09:38;;;;;;;24.10;14.45;;;;;;;7.56;100.00;101487.00;5086253;28;20078;-64
2022/09/23 04:12:04;;;;;;;23.92;14.30;;;;;;;7.56;100.00;101470.28;5085491;28;20035;-64
2022/09/23 04:14:30;;;;;;;24.45;14.18;;;;;;;7.57;100.00;101472.09;5085301;28;20064;-64
2022/09/23 04:16:55;;;;;;;25.13;14.57;;;;;;;7.61;100.00;101485.34;5088070;28;20044;-64
2022/09/23 04:19:21;;;;;;;23.58;13.70;;;;;;;7.66;100.00;101483.75;5084483;28;20033;-63
2022/09/23 04:21:47;;;;;;;24.45;13.38;;;;;;;7.76;100.00;101474.38;5087236;28;20021;-64
2022/09/23 04:24:13;;;;;;;24.85;13.75;;;;;;;7.72;100.00;101469.88;5085307;28;20035;-63
2022/09/23 04:26:39;;;;;;;23.38;13.00;;;;;;;7.71;100.00;101480.34;5086427;28;20397;-64
2022/09/23 04:29:04;;;;;;;24.23;14.30;;;;;;;7.63;100.00;101486.31;5086734;28;20024;-64
2022/09/23 04:31:31;;;;;;;25.60;13.32;;;;;;;7.63;100.00;101478.41;5084756;28;20032;-64
2022/09/23 04:33:57;;;;;;;23.90;13.68;;;;;;;7.66;100.00;101473.22;5087535;28;20386;-64
2022/09/23 04:36:23;;;;;;;23.52;13.80;;;;;;;7.64;100.00;101469.66;5083933;28;20049;-63
2022/09/23 04:38:49;;;;;;;24.88;13.68;;;;;;;7.62;100.00;101476.63;5087128;28;20032;-64
2022/09/23 04:41:15;;;;;;;24.20;13.77;;;;;;;7.65;100.00;101478.44;5084964;28;20024;-64
2022/09/23 04:43:41;;;;;;;24.15;13.95;;;;;;;7.71;100.00;101472.47;5086089;28;20025;-64
2022/09/23 04:46:10;;;;;;;23.88;13.70;;;;;;;7.66;100.00;101469.72;5086379;28;20035;-64
2022/09/23 04:48:36;;;;;;;23.67;13.43;;;;;;;7.66;100.00;101472.34;5085098;28;20142;-64
2022/09/23 04:51:09;;;;;;;23.15;13.20;;;;;;;7.67;100.00;101474.09;5086529;28;20028;-64
2022/09/23 04:53:36;;;;;;;;;;;;;;;7.71;100.00;101470.72;5085174;28;20029;-64
2022/09/23 04:56:08;;;;;;;23.58;13.35;;;;;;;7.67;100.00;101468.84;5086534;28;19919;-64
2022/09/23 04:58:34;;;;;;;26.55;13.50;;;;;;;7.66;100.00;101465.34;5084799;28;20024;-64
2022/09/23 05:01:18;;;;;;;24.05;13.27;;;;;;;7.71;100.00;101465.44;5086955;28;20031;-64
2022/09/23 05:03:44;;;;;;;25.65;15.10;;;;;;;7.63;100.00;101462.63;5085856;28;20016;-64
2022/09/23 05:06:14;;;;;;;24.20;13.98;;;;;;;7.59;100.00;101455.50;5085412;28;20111;-64
2022/09/23 05:08:49;;;;;;;24.30;14.02;;;;;;;7.59;100.00;101455.50;5085590;28;20099;-64
2022/09/23 05:11:15;;;;;;;23.17;13.50;;;;;;;7.61;100.00;101458.16;5084331;28;20024;-64
2022/09/23 05:13:40;;;;;;;23.42;13.60;;;;;;;7.56;100.00;101459.78;5085567;28;20036;-64
2022/09/23 05:16:08;;;;;;;23.67;13.35;;;;;;;7.56;100.00;101459.78;5084604;28;20021;-64
2022/09/23 05:18:35;;;;;;;23.58;13.27;;;;;;;7.54;100.00;101462.34;5084476;28;20375;-64
2022/09/23 05:21:01;;;;;;;25.85;13.60;;;;;;;7.56;100.00;101471.22;5086394;28;20466;-64
2022/09/23 05:23:27;;;;;;;23.88;13.23;;;;;;;7.60;100.00;101469.53;5083189;28;20465;-64
2022/09/23 05:25:58;;;;;;;23.50;13.15;;;;;;;7.58;100.00;101471.25;5086791;28;20028;-64
2022/09/23 05:28:27;;;;;;;23.88;13.35;;;;;;;7.63;100.00;101467.88;5083181;28;20032;-63
2022/09/23 05:30:53;;;;;;;24.63;13.20;;;;;;;7.62;100.00;101474.00;5083311;28;20056;-64
2022/09/23 05:33:18;;;;;;;23.92;12.93;;;;;;;7.61;100.00;101477.47;5085940;28;20056;-64
2022/09/23 05:35:47;;;;;;;24.23;13.60;;;;;;;7.62;100.00;101478.38;5083985;28;20550;-64
2022/09/23 05:38:15;;;;;;;24.17;13.52;;;;;;;7.68;100.00;101482.03;5085316;28;20029;-64
2022/09/23 05:40:40;;;;;;;24.77;13.55;;;;;;;7.72;100.00;101480.41;5082647;28;20051;-65
2022/09/23 05:43:06;;;;;;;23.90;13.63;;;;;;;7.84;100.00;101477.19;5084318;28;20029;-64
2022/09/23 05:45:31;;;;;;;24.75;13.63;;;;;;;7.91;100.00;101478.25;5084087;28;20531;-62
2022/09/23 05:47:56;;;;;;;24.02;13.00;;;;;;;7.94;100.00;101483.59;5086845;28;20750;-62
2022/09/23 05:50:22;;;;;;;23.65;12.60;;;;;;;8.00;100.00;101481.97;5089290;28;20073;-62
2022/09/23 05:52:47;;;;;;;24.27;12.98;;;;;;;8.00;100.00;101484.63;5090073;28;20158;-62
2022/09/23 05:55:13;;;;;;;25.00;13.05;;;;;;;8.01;100.00;101480.25;5088594;28;20488;-61
2022/09/23 05:57:38;;;;;;;23.35;12.90;;;;;;;8.03;100.00;101483.81;5088758;28;20111;-62
2022/09/23 06:00:04;;;;;;;22.80;12.60;;;;;;;8.10;100.00;101495.41;5086674;28;20059;-61
2022/09/23 06:02:30;;;;;;;24.98;13.10;;;;;;;8.18;100.00;101493.81;5086640;28;20032;-62
2022/09/23 06:04:55;;;;;;;24.50;12.50;;;;;;;8.28;100.00;101484.41;5086955;28;20056;-61
2022/09/23 06:07:20;;;;;;;24.80;12.50;;;;;;;8.35;100.00;101488.97;5088444;28;20028;-61
2022/09/23 06:09:45;;;;;;;25.02;12.75;;;;;;;8.43;100.00;101482.16;5086758;28;20028;-62
2022/09/23 06:12:12;;;;;;;25.13;12.48;;;;;;;8.53;100.00;101491.16;5086011;28;20380;-63
2022/09/23 06:14:38;;;;;;;24.83;12.18;;;;;;;8.63;100.00;101481.72;5088405;28;20031;-62
2022/09/23 06:17:04;;;;;;;23.20;12.15;;;;;;;8.65;100.00;101477.38;5084364;28;20029;-63
2022/09/23 06:19:29;;;;;;;23.15;11.80;;;;;;;8.71;100.00;101481.06;5087517;28;20410;-62
2022/09/23 06:21:54;;;;;;;22.90;12.10;;;;;;;8.77;100.00;101484.69;5087643;28;20106;-62
2022/09/23 06:24:20;;;;;;;24.23;12.25;;;;;;;8.84;100.00;101479.56;5089054;28;20103;-61
2022/09/23 06:26:46;;;;;;;25.98;12.80;;;;;;;8.90;100.00;101477.06;5083969;28;20102;-62
2022/09/23 06:29:11;;;;;;;25.08;12.52;;;;;;;8.94;100.00;101470.13;5089969;28;20049;-62
2022/09/23 06:31:40;;;;;;;23.20;11.82;;;;;;;8.98;100.00;101466.66;5087978;28;20028;-61
2022/09/23 06:34:08;;;;;;;22.98;12.05;;;;;;;9.03;100.00;101472.94;5087499;28;20031;-63
2022/09/23 06:36:33;;;;;;;24.88;12.65;;;;;;;9.03;100.00;101467.66;5086637;28;20046;-63
2022/09/23 06:38:59;;;;;;;23.08;12.32;;;;;;;9.08;100.00;101471.28;5084803;28;20032;-63
2022/09/23 06:41:24;;;;;;;24.20;12.30;;;;;;;9.11;100.00;101465.19;5084594;28;20045;-61
2022/09/23 06:43:49;;;;;;;24.83;12.63;;;;;;;9.23;100.00;101475.06;5079142;28;20486;-63
2022/09/23 06:46:15;;;;;;;26.25;12.90;;;;;;;9.29;100.00;101469.94;5081070;28;20023;-62
2022/09/23 06:48:42;;;;;;;23.17;12.52;;;;;;;9.38;100.00;101470.13;5077460;28;20020;-61
2022/09/23 06:51:11;;;;;;;23.65;12.02;;;;;;;9.50;100.00;101474.72;5078631;28;20020;-62
2022/09/23 06:53:37;;;;;;;24.02;12.63;;;;;;;9.56;100.00;101473.97;5075918;28;20081;-61
2022/09/23 06:56:08;;;;;;;24.15;11.88;;;;;;;9.71;100.00;101482.19;5082459;28;20119;-61
2022/09/23 06:58:35;;;;;;;23.63;12.20;;;;;;;9.71;100.00;101468.97;5076536;28;20486;-62
2022/09/23 07:01:01;;;;;;;23.80;11.65;;;;;;;9.79;100.00;101465.59;5076768;28;20307;-62
2022/09/23 07:03:27;;;;;;;23.90;11.98;;;;;;;9.81;100.00;101471.75;5077091;28;20047;-62
2022/09/23 07:05:55;;;;;;;22.80;11.98;;;;;;;9.87;100.00;101469.22;5080720;28;20031;-62
2022/09/23 07:08:20;;;;;;;23.50;11.32;;;;;;;9.89;100.00;101462.22;5076294;28;20028;-62
2022/09/23 07:10:53;;;;;;;24.40;11.48;;;;;;;9.95;100.00;101472.91;5078007;28;20039;-62
2022/09/23 07:13:19;;;;;;;23.83;11.65;;;;;;;9.99;100.00;101469.44;5077512;28;20489;-64
2022/09/23 07:15:52;;;;;;;22.70;11.57;;;;;;;10.08;100.00;101474.00;5075360;28;20028;-62
2022/09/23 07:18:19;;;;;;;23.20;11.68;;;;;;;10.25;100.00;101476.88;5077486;28;20020;-61
2022/09/23 07:20:47;;;;;;;25.10;12.07;;;;;;;10.37;100.00;101465.63;5075537;28;20031;-61
2022/09/23 07:23:13;;;;;;;23.67;11.52;;;;;;;10.62;100.00;101464.25;5078085;28;20434;-62
2022/09/23 07:25:39;;;;;;;25.27;11.60;;;;;;;10.91;100.00;101469.94;5076989;28;20048;-62
2022/09/23 07:28:05;;;;;;;23.02;11.48;;;;;;;11.07;100.00;101464.84;5079559;28;20359;-62
2022/09/23 07:30:34;;;;;;;24.10;11.43;;;;;;;11.26;100.00;101469.47;5077389;28;20134;-60
2022/09/23 07:32:59;;;;;;;22.75;10.88;;;;;;;11.43;100.00;101474.97;5078429;28;20100;-61
2022/09/23 07:35:26;;;;;;;23.98;11.57;;;;;;;11.59;100.00;101464.53;5078620;28;20462;-62
2022/09/23 07:37:52;;;;;;;21.25;10.05;;;;;;;11.68;100.00;101475.22;5076612;28;20531;-61
2022/09/23 07:40:18;;;;;;;21.67;10.57;;;;;;;11.62;100.00;101469.84;5085369;28;20028;-61
2022/09/23 07:42:43;;;;;;;22.30;11.30;;;;;;;11.61;100.00;101463.69;5081851;28;20020;-61
2022/09/23 07:45:08;;;;;;;21.58;10.70;;;;;;;11.74;100.00;101464.69;5089464;28;20027;-61
2022/09/23 07:47:34;;;;;;;22.77;11.18;;;;;;;11.88;100.00;101472.75;5084074;28;20028;-61
2022/09/23 07:50:00;;;;;;;21.35;10.80;;;;;;;11.97;100.00;101471.97;5081690;28;20554;-61
2022/09/23 07:52:25;;;;;;;20.92;9.98;;;;;;;12.02;100.00;101472.91;5085308;28;20036;-61
2022/09/23 07:54:50;;;;;;;22.42;10.38;;;;;;;11.96;100.00;101471.09;5087203;28;20483;-61
2022/09/23 07:57:16;;;;;;;22.60;10.30;;;;;;;11.94;100.00;101464.00;5085767;28;20096;-61
2022/09/23 07:59:42;;;;;;;22.15;9.38;;;;;;;11.93;100.00;101464.84;5085440;28;20046;-63
2022/09/23 08:02:08;;;;;;;21.38;9.50;;;;;;;11.99;100.00;101472.88;5085052;28;20125;-61
2022/09/23 08:04:34;;;;;;;21.38;9.70;;;;;;;12.08;100.00;101474.72;5080724;28;20079;-61
2022/09/23 08:07:02;;;;;;;23.42;10.27;;;;;;;12.19;100.00;101479.22;5083202;28;20034;-62
2022/09/23 08:09:31;;;;;;;22.17;10.05;;;;;;;12.27;100.00;101481.06;5081896;28;20128;-61
2022/09/23 08:11:57;;;;;;;24.02;9.90;;;;;;;12.44;100.00;101483.84;5082411;28;20090;-62
2022/09/23 08:14:23;;;;;;;21.17;9.95;;;;;;;12.52;100.00;101477.72;5082107;28;20039;-63
2022/09/23 08:16:49;;;;;;;21.63;10.13;;;;;;;12.67;100.00;101479.56;5081916;28;20024;-62
2022/09/23 08:19:15;;;;;;;21.35;9.15;;;;;;;12.66;100.00;101476.91;5083064;28;20032;-62
2022/09/23 08:21:41;;;;;;;22.35;9.45;;;;;;;12.69;100.00;101476.91;5080703;28;20025;-62
2022/09/23 08:24:18;;;;;;;23.20;10.15;;;;;;;12.89;100.00;101469.94;5084003;28;20027;-62
2022/09/23 08:26:45;;;;;;;22.52;10.20;;;;;;;12.95;100.00;101476.16;5080812;28;20067;-63
2022/09/23 08:29:15;;;;;;;23.10;10.00;;;;;;;13.03;100.00;101480.63;5084174;28;20028;-62
2022/09/23 08:31:41;;;;;;;22.52;9.82;;;;;;;13.12;100.00;101479.78;5080667;28;20425;-64
2022/09/23 08:34:06;;;;;;;22.33;9.32;;;;;;;13.09;100.00;101471.78;5084901;28;20028;-63
2022/09/23 08:36:33;;;;;;;22.30;9.70;;;;;;;13.18;100.00;101477.13;5085351;28;20082;-63
2022/09/23 08:38:58;;;;;;;21.52;9.75;;;;;;;13.34;100.00;101474.50;5087460;28;20032;-63
2022/09/23 08:41:33;;;;;;;21.33;9.52;;;;;;;13.45;100.00;101478.13;5088159;28;20024;-62
2022/09/23 08:44:03;;;;;;;21.23;9.10;;;;;;;13.62;100.00;101475.53;5083219;28;20085;-62
2022/09/23 08:46:35;;;;;;;21.75;8.98;;;;;;;13.76;100.00;101479.09;5083150;28;20043;-62
2022/09/23 08:49:01;;;;;;;21.53;9.30;;;;;;;13.87;100.00;101467.59;5079362;28;20033;-63
2022/09/23 08:51:39;;;;;;;20.70;8.85;;;;;;;14.03;100.00;101471.13;5081970;28;20063;-62
2022/09/23 08:54:08;;;;;;;19.90;8.55;;;;;;;14.12;100.00;101469.38;5086556;28;20036;-64
2022/09/23 08:56:37;;;;;;;20.35;8.88;;;;;;;14.42;100.00;101474.66;5088496;28;20471;-62
2022/09/23 08:59:02;;;;;;;21.92;9.23;;;;;;;14.54;100.00;101474.63;5086126;28;20036;-64
2022/09/23 09:01:43;;;;;;;22.35;8.93;;;;;;;14.79;100.00;101471.91;5090192;28;20031;-63
2022/09/23 09:04:26;;;;;;;22.38;9.00;;;;;;;14.96;100.00;101471.88;5088676;28;20016;-61
2022/09/23 09:06:55;;;;;;;;;;;;;;;15.36;100.00;101468.13;5086048;28;20107;-63
2022/09/23 09:09:29;;;;;;;21.45;8.50;;;;;;;15.73;100.00;101468.78;5087383;28;19916;-61
2022/09/23 09:12:02;;;;;;;22.35;8.05;;;;;;;15.86;100.00;101472.28;5088355;28;20036;-62
2022/09/23 09:14:41;;;;;;;20.90;8.20;;;;;;;16.06;100.00;101473.91;5091588;28;20081;-63
2022/09/23 09:17:12;;;;;;;20.00;7.30;;;;;;;16.09;100.00;101463.19;5090412;28;20063;-62
2022/09/23 09:20:06;;;;;;;20.17;7.90;;;;;;;16.12;100.00;101461.41;5088464;28;20024;-63
2022/09/23 09:22:56;;;;;;;20.83;8.15;;;;;;;16.37;100.00;101462.03;5084115;28;20071;-63
2022/09/23 09:25:42;;;;;;;19.52;7.30;;;;;;;16.64;100.00;101467.97;5105322;28;20075;-62
2022/09/23 09:28:23;;;;;;;19.42;7.32;;;;;;;16.31;100.00;101462.13;5078380;28;20411;-63
2022/09/23 09:30:56;;;;;;;19.58;7.70;;;;;;;16.44;100.00;101459.31;5086598;28;20040;-63
2022/09/23 09:33:37;;;;;;;20.05;7.20;;;;;;;16.93;100.00;101458.78;5081293;28;20047;-62
2022/09/23 09:36:40;;;;;;;20.50;7.22;;;;;;;17.54;100.00;101454.41;5090902;28;20498;-63
2022/09/23 09:39:11;;;;;;;19.83;7.45;;;;;;;18.08;100.00;101458.91;5015830;28;20072;-61
2022/09/23 09:41:40;;;;;;;19.92;7.57;;;;;;;18.38;98.26;101451.25;5018179;28;20096;-62
2022/09/23 09:44:18;;;;;;;20.02;7.07;;;;;;;18.53;96.18;101449.22;5014652;28;20068;-62
2022/09/23 09:46:54;;;;;;;20.10;6.60;;;;;;;18.55;97.84;101458.09;5016063;28;20116;-62
2022/09/23 09:49:28;;;;;;;18.98;7.10;;;;;;;18.96;91.93;101445.69;5018412;28;20503;-62
2022/09/23 09:52:22;;;;;;;19.85;6.80;;;;;;;19.72;94.49;101449.34;5019031;28;20034;-64
2022/09/23 09:54:49;;;;;;;19.45;6.65;;;;;;;19.83;89.29;101448.22;5014689;28;20045;-64
2022/09/23 09:57:41;;;;;;;18.25;6.10;;;;;;;19.75;86.63;101446.63;5013046;28;20022;-63
2022/09/23 10:00:35;;;;;;;18.50;6.53;;;;;;;19.48;80.61;101441.88;4963992;28;20036;-62
2022/09/23 10:03:44;;;;;;;18.42;5.90;;;;;;;19.76;80.08;101448.34;4967877;28;20077;-62
2022/09/23 10:06:16;;;;;;;18.60;5.80;;;;;;;19.98;74.37;101443.34;4964984;28;20402;-62
2022/09/23 10:08:47;;;;;;;19.10;6.10;;;;;;;20.00;73.70;101442.41;4971183;28;20035;-61
2022/09/23 10:11:17;;;;;;;17.30;5.70;;;;;;;19.63;74.12;101443.31;4968384;28;20035;-62
2022/09/23 10:14:11;;;;;;;18.15;5.82;;;;;;;19.63;77.52;101435.25;4995908;28;20457;-61
2022/09/23 10:16:39;;;;;;;17.92;5.90;;;;;;;19.57;71.66;101434.50;5006440;28;20513;-63
2022/09/23 10:19:24;;;;;;;18.50;6.00;;;;;;;19.04;73.55;101438.38;5003258;28;20381;-62
2022/09/23 10:21:55;;;;;;;17.50;5.60;;;;;;;19.08;72.40;101426.69;5007258;28;20041;-66
2022/09/23 10:24:23;;;;;;;19.75;6.20;;;;;;;19.10;73.88;101426.66;5007001;28;20042;-65
2022/09/23 10:27:10;;;;;;;19.60;6.55;;;;;;;19.59;74.93;101427.31;5006651;28;20030;-65
2022/09/23 10:29:38;;;;;;;18.73;5.90;;;;;;;19.28;69.67;101422.66;5003506;28;20025;-67
2022/09/23 10:32:30;;;;;;;18.88;6.00;;;;;;;19.24;71.64;101421.00;5003582;28;20037;-67
2022/09/23 10:35:13;;;;;;;17.88;5.47;;;;;;;19.28;71.51;101423.56;4990303;28;20597;-65
2022/09/23 10:37:51;;;;;;;18.35;5.80;;;;;;;19.03;68.63;101420.53;5060279;28;20047;-65
2022/09/23 10:49:30;;;;;;;18.10;5.88;;;;;;;19.40;71.47;101427.75;5084700;28;20034;-62
2022/09/23 10:52:38;;;;;;;17.33;5.80;;;;;;;18.90;72.37;101419.03;5087113;28;20028;-64
2022/09/23 10:55:03;;;;;;;18.05;5.90;;;;;;;18.76;73.62;101420.19;5080826;28;20032;-62
2022/09/23 10:57:49;;;;;;;19.73;6.10;;;;;;;18.68;73.08;101432.81;5086029;28;20035;-62
2022/09/23 11:00:22;;;;;;;18.88;5.75;;;;;;;18.50;72.38;101415.34;5084737;28;20028;-62
2022/09/23 11:03:10;;;;;;;;;;;;;;;18.89;74.01;101419.97;5085164;28;20027;-62
2022/09/23 11:06:02;;;;;;;17.27;5.72;;;;;;;19.29;73.47;101411.91;5009236;28;19955;-62
2022/09/23 11:08:51;;;;;;;19.10;6.15;;;;;;;19.17;70.27;101412.19;5009868;28;20075;-64
2022/09/23 11:11:25;;;;;;;19.02;6.15;;;;;;;19.01;73.18;101419.69;5009415;28;20611;-63
2022/09/23 11:13:57;;;;;;;18.17;5.97;;;;;;;19.22;71.09;101417.44;5005693;28;20030;-63
2022/09/23 11:16:54;;;;;;;17.25;5.45;;;;;;;19.19;71.18;101410.34;5006628;28;20120;-63
2022/09/23 11:19:53;;;;;;;17.02;5.45;;;;;;;19.63;71.10;101408.44;5006367;28;20049;-64
2022/09/23 11:22:51;;;;;;;17.23;5.03;;;;;;;19.48;65.60;101408.78;5009060;28;20034;-63
2022/09/23 11:25:29;;;;;;;18.83;5.25;;;;;;;19.30;65.57;101402.09;5008715;28;20615;-64
2022/09/23 11:28:09;;;;;;;17.60;5.10;;;;;;;19.36;64.04;101401.94;5010649;28;20036;-63
2022/09/23 11:31:05;;;;;;;17.85;5.47;;;;;;;19.33;65.59;101404.69;5007114;28;20095;-64
2022/09/23 11:33:51;;;;;;;16.98;5.38;;;;;;;19.51;65.13;101406.94;5010418;28;20033;-63
2022/09/23 11:36:31;;;;;;;18.88;5.55;;;;;;;19.79;66.48;101408.06;5008495;28;20429;-64
2022/09/23 11:39:00;;;;;;;17.52;4.93;;;;;;;19.77;64.26;101397.34;5010513;28;20477;-64
2022/09/23 11:41:33;;;;;;;18.23;5.53;;;;;;;19.58;64.83;101406.78;5010978;28;20108;-63
2022/09/23 11:44:04;;;;;;;19.23;5.20;;;;;;;19.65;64.81;101395.00;5083955;28;20031;-63